createdAt,value
2023-02-08T00:00:44.650Z,79.29
2023-02-08T00:03:12.256Z,78.39
2023-02-08T00:05:40.116Z,77.75
2023-02-08T00:08:07.893Z,77.83
2023-02-08T00:10:37.225Z,78.27
2023-02-08T00:13:06.474Z,78.34
2023-02-08T00:15:34.027Z,79.20
2023-02-08T00:18:01.570Z,81.76
2023-02-08T00:20:29.046Z,81.86
2023-02-08T00:22:57.311Z,83.61
2023-02-08T00:25:24.842Z,84.57
2023-02-08T00:27:52.441Z,85.30
2023-02-08T00:30:21.568Z,85.73
2023-02-08T00:32:49.048Z,85.81
2023-02-08T00:35:16.613Z,85.89
2023-02-08T00:37:44.091Z,85.86
2023-02-08T00:40:12.697Z,85.93
2023-02-08T00:42:40.184Z,85.78
2023-02-08T00:45:08.243Z,86.09
2023-02-08T00:47:37.254Z,85.83
2023-02-08T00:50:05.559Z,85.77
2023-02-08T00:52:33.337Z,86.11
2023-02-08T00:55:00.808Z,85.99
2023-02-08T00:57:28.381Z,86.80
2023-02-08T00:59:55.821Z,87.17
2023-02-08T01:02:23.330Z,87.28
2023-02-08T01:04:52.260Z,87.22
2023-02-08T01:07:19.773Z,87.46
2023-02-08T01:09:47.264Z,87.43
2023-02-08T01:12:14.764Z,87.24
2023-02-08T01:14:42.260Z,87.21
2023-02-08T01:17:10.047Z,87.69
2023-02-08T01:19:37.553Z,87.45
2023-02-08T01:22:06.375Z,87.70
2023-02-08T01:24:34.214Z,88.10
2023-02-08T01:27:01.677Z,88.26
2023-02-08T01:29:29.155Z,88.16
2023-02-08T01:31:56.652Z,88.21
2023-02-08T01:34:24.153Z,88.53
2023-02-08T01:36:51.662Z,88.68
2023-02-08T01:39:21.643Z,88.76
2023-02-08T01:41:49.260Z,88.60
2023-02-08T01:44:54.280Z,88.50
2023-02-08T01:47:21.960Z,88.12
2023-02-08T01:49:49.454Z,88.14
2023-02-08T01:52:20.178Z,88.36
2023-02-08T01:54:52.360Z,88.37
2023-02-08T01:57:21.367Z,88.49
2023-02-08T01:59:51.248Z,88.31
2023-02-08T02:02:21.248Z,88.07
2023-02-08T02:04:49.253Z,87.91
2023-02-08T02:07:17.455Z,87.63
2023-02-08T02:09:47.791Z,87.50
2023-02-08T02:12:17.527Z,88.06
2023-02-08T02:14:45.909Z,88.01
2023-02-08T02:17:14.362Z,88.32
2023-02-08T02:19:48.716Z,88.70
2023-02-08T02:22:35.913Z,88.53
2023-02-08T02:25:23.783Z,88.04
2023-02-08T02:28:16.973Z,88.51
2023-02-08T02:31:20.427Z,88.25
2023-02-08T02:33:59.675Z,88.71
2023-02-08T02:36:33.685Z,89.03
2023-02-08T02:39:08.694Z,89.16
2023-02-08T02:41:58.675Z,89.66
2023-02-08T02:44:30.407Z,89.66
2023-02-08T02:47:03.828Z,89.66
2023-02-08T02:49:38.255Z,89.54
2023-02-08T02:52:08.540Z,89.31
2023-02-08T02:54:39.856Z,89.36
2023-02-08T02:57:09.950Z,89.42
2023-02-08T02:59:38.722Z,89.64
2023-02-08T03:02:06.784Z,89.74
2023-02-08T03:04:51.221Z,89.79
2023-02-08T03:07:28.627Z,88.86
2023-02-08T03:10:05.934Z,88.55
2023-02-08T03:12:41.144Z,88.52
2023-02-08T03:15:17.389Z,87.79
2023-02-08T03:17:56.718Z,88.21
2023-02-08T03:20:29.118Z,88.39
2023-02-08T03:23:02.551Z,88.75
2023-02-08T03:25:34.561Z,88.43
2023-02-08T03:28:06.539Z,88.36
2023-02-08T03:30:45.195Z,88.97
2023-02-08T03:33:15.915Z,89.26
2023-02-08T03:35:47.939Z,89.37
2023-02-08T03:38:17.317Z,89.64
2023-02-08T03:40:47.356Z,89.44
2023-02-08T03:43:17.768Z,89.46
2023-02-08T03:45:48.697Z,89.51
2023-02-08T03:48:18.530Z,89.49
2023-02-08T03:50:49.294Z,88.18
2023-02-08T03:53:19.148Z,88.29
2023-02-08T03:55:47.969Z,88.70
2023-02-08T03:58:19.661Z,88.75
2023-02-08T04:00:52.847Z,89.35
2023-02-08T04:03:22.980Z,89.18
2023-02-08T04:05:52.063Z,89.59
2023-02-08T04:08:19.936Z,89.67
2023-02-08T04:10:47.930Z,89.42
2023-02-08T04:13:15.386Z,89.60
2023-02-08T04:15:44.186Z,89.25
2023-02-08T04:18:12.698Z,89.28
2023-02-08T04:20:40.470Z,89.35
2023-02-08T04:23:09.472Z,89.24
2023-02-08T04:25:36.978Z,88.47
2023-02-08T04:28:04.653Z,88.06
2023-02-08T04:30:32.205Z,88.24
2023-02-08T04:33:00.087Z,88.09
2023-02-08T04:35:27.666Z,88.50
2023-02-08T04:37:55.991Z,89.16
2023-02-08T04:40:24.873Z,89.55
2023-02-08T04:42:52.354Z,90.37
2023-02-08T04:45:19.911Z,90.37
2023-02-08T04:47:47.353Z,90.21
2023-02-08T04:50:15.091Z,90.59
2023-02-08T04:52:42.600Z,90.22
2023-02-08T04:55:10.064Z,88.95
2023-02-08T04:57:38.903Z,88.45
2023-02-08T05:00:07.691Z,87.97
2023-02-08T05:02:35.527Z,87.75
2023-02-08T05:05:03.181Z,87.09
2023-02-08T05:07:31.268Z,86.57
2023-02-08T05:09:58.817Z,86.70
2023-02-08T05:12:26.362Z,86.61
2023-02-08T05:14:55.134Z,86.29
2023-02-08T05:17:22.619Z,86.77
2023-02-08T05:19:50.129Z,86.25
2023-02-08T05:22:17.673Z,86.40
2023-02-08T05:24:45.181Z,85.80
2023-02-08T05:27:12.668Z,85.28
2023-02-08T05:29:40.280Z,85.57
2023-02-08T05:32:09.117Z,85.50
2023-02-08T05:34:38.108Z,85.76
2023-02-08T05:37:06.106Z,85.26
2023-02-08T05:39:33.569Z,84.57
2023-02-08T05:42:01.140Z,84.55
2023-02-08T05:44:28.709Z,84.89
2023-02-08T05:46:56.218Z,84.85
2023-02-08T05:49:25.164Z,84.34
2023-02-08T05:51:52.736Z,84.41
2023-02-08T05:54:20.214Z,83.98
2023-02-08T05:56:47.873Z,84.32
2023-02-08T05:59:15.451Z,84.27
2023-02-08T06:01:43.057Z,84.42
2023-02-08T06:04:10.604Z,83.88
2023-02-08T06:06:39.504Z,83.44
2023-02-08T06:09:06.994Z,83.79
2023-02-08T06:11:36.068Z,83.71
2023-02-08T06:14:03.964Z,83.53
2023-02-08T06:16:31.494Z,84.06
2023-02-08T06:18:59.046Z,83.85
2023-02-08T06:21:26.584Z,83.94
2023-02-08T06:23:55.499Z,83.42
2023-02-08T06:26:23.019Z,83.82
2023-02-08T06:28:50.539Z,83.67
2023-02-08T06:31:18.118Z,83.90
2023-02-08T06:33:45.653Z,83.96
2023-02-08T06:36:13.115Z,84.01
2023-02-08T06:38:40.704Z,84.10
2023-02-08T06:41:09.593Z,84.10
2023-02-08T06:43:37.051Z,83.54
2023-02-08T06:46:08.439Z,83.75
2023-02-08T06:48:36.324Z,83.35
2023-02-08T06:51:03.996Z,83.52
2023-02-08T06:53:31.628Z,83.74
2023-02-08T06:56:00.123Z,83.18
2023-02-08T06:58:28.926Z,82.92
2023-02-08T07:00:56.520Z,82.77
2023-02-08T07:03:24.009Z,82.84
2023-02-08T07:06:04.204Z,82.89
2023-02-08T07:08:32.573Z,82.59
2023-02-08T07:11:00.112Z,82.42
2023-02-08T07:13:29.016Z,82.39
2023-02-08T07:15:56.557Z,82.30
2023-02-08T07:18:24.039Z,81.79
2023-02-08T07:20:51.624Z,81.39
2023-02-08T07:23:19.122Z,80.86
2023-02-08T07:25:46.636Z,81.14
2023-02-08T07:28:14.198Z,80.40
2023-02-08T07:30:43.241Z,80.02
2023-02-08T07:33:10.814Z,80.53
2023-02-08T07:35:38.291Z,79.61
2023-02-08T07:38:05.789Z,79.33
2023-02-08T07:40:33.316Z,78.80
2023-02-08T07:43:00.823Z,78.52
2023-02-08T07:45:28.382Z,78.63
2023-02-08T07:47:57.260Z,78.66
2023-02-08T07:50:24.759Z,77.88
2023-02-08T07:52:52.267Z,77.63
2023-02-08T07:55:20.478Z,77.65
2023-02-08T07:57:49.947Z,77.34
2023-02-08T08:00:19.087Z,77.58
2023-02-08T08:02:46.593Z,76.99
2023-02-08T08:05:15.480Z,76.77
2023-02-08T08:07:42.967Z,76.88
2023-02-08T08:10:10.839Z,76.36
2023-02-08T08:12:38.321Z,75.58
2023-02-08T08:15:06.967Z,75.91
2023-02-08T08:17:34.461Z,75.22
2023-02-08T08:20:01.913Z,74.97
2023-02-08T08:22:30.831Z,75.26
2023-02-08T08:24:59.956Z,74.95
2023-02-08T08:27:27.480Z,74.19
2023-02-08T08:29:55.056Z,73.76
2023-02-08T08:32:22.577Z,73.34
2023-02-08T08:34:50.071Z,73.97
2023-02-08T08:37:17.627Z,74.14
2023-02-08T08:39:46.498Z,73.49
2023-02-08T08:42:14.048Z,72.78
2023-02-08T08:44:41.615Z,73.05
2023-02-08T08:47:09.923Z,72.30
2023-02-08T08:49:37.488Z,71.61
2023-02-08T08:52:07.838Z,72.05
2023-02-08T08:54:35.588Z,71.45
2023-02-08T08:57:04.968Z,70.85
2023-02-08T08:59:32.530Z,70.62
2023-02-08T09:02:00.245Z,70.12
2023-02-08T09:04:27.875Z,69.67
2023-02-08T09:06:55.816Z,69.37
2023-02-08T09:09:23.790Z,69.62
2023-02-08T09:11:51.283Z,69.05
2023-02-08T09:14:20.095Z,68.98
2023-02-08T09:16:48.362Z,67.99
2023-02-08T09:19:16.546Z,67.58
2023-02-08T09:21:44.066Z,68.24
2023-02-08T09:24:11.972Z,67.08
2023-02-08T09:26:39.598Z,66.27
2023-02-08T09:29:07.613Z,65.56
2023-02-08T09:31:37.945Z,65.61
2023-02-08T09:34:06.859Z,65.66
2023-02-08T09:36:36.031Z,65.53
2023-02-08T09:39:07.567Z,65.42
2023-02-08T09:42:02.801Z,65.55
2023-02-08T09:44:34.053Z,64.91
2023-02-08T09:47:06.192Z,64.71
2023-02-08T09:49:36.443Z,64.74
2023-02-08T09:52:07.054Z,63.91
2023-02-08T09:54:36.314Z,64.14
2023-02-08T09:57:07.075Z,64.19
2023-02-08T09:59:35.229Z,62.71
2023-02-08T10:02:13.858Z,62.89
2023-02-08T10:04:53.696Z,62.05
2023-02-08T10:07:21.258Z,60.46
2023-02-08T10:09:48.848Z,59.70
2023-02-08T10:12:21.589Z,60.25
2023-02-08T10:15:01.636Z,59.74
2023-02-08T10:17:41.733Z,58.34
2023-02-08T10:20:20.067Z,57.74
2023-02-08T10:22:52.910Z,57.53
2023-02-08T10:25:41.220Z,56.81
2023-02-08T10:28:22.274Z,57.17
2023-02-08T10:30:54.070Z,55.92
2023-02-08T10:33:28.224Z,55.16
2023-02-08T10:35:56.220Z,55.67
2023-02-08T10:38:29.674Z,56.77
2023-02-08T10:41:03.532Z,56.21
2023-02-08T10:43:36.943Z,55.99
2023-02-08T10:46:11.135Z,55.28
2023-02-08T10:48:48.166Z,54.85
2023-02-08T10:51:17.651Z,55.43
2023-02-08T10:53:45.670Z,55.12
2023-02-08T10:56:32.322Z,55.57
2023-02-08T10:59:00.022Z,54.75
2023-02-08T11:01:28.831Z,54.69
2023-02-08T11:04:05.038Z,53.48
2023-02-08T11:06:32.614Z,55.38
2023-02-08T11:09:00.100Z,54.79
2023-02-08T11:11:29.700Z,53.41
2023-02-08T11:14:08.562Z,54.13
2023-02-08T11:16:36.828Z,53.57
2023-02-08T11:19:07.826Z,54.75
2023-02-08T11:21:37.196Z,53.29
2023-02-08T11:24:17.874Z,53.06
2023-02-08T11:26:45.461Z,53.49
2023-02-08T11:29:18.649Z,52.82
2023-02-08T11:31:58.872Z,52.30
2023-02-08T11:34:29.035Z,51.95
2023-02-08T11:36:57.771Z,50.69
2023-02-08T11:39:29.009Z,51.96
2023-02-08T11:41:59.655Z,51.00
2023-02-08T11:44:29.716Z,50.57
2023-02-08T11:46:58.449Z,50.27
2023-02-08T11:49:31.614Z,50.31
2023-02-08T11:51:59.186Z,49.66
2023-02-08T11:54:35.332Z,49.22
2023-02-08T11:57:04.557Z,50.50
2023-02-08T11:59:33.489Z,50.16
2023-02-08T12:02:21.306Z,48.50
2023-02-08T12:04:50.166Z,48.04
2023-02-08T12:07:22.147Z,47.83
2023-02-08T12:10:08.189Z,48.11
2023-02-08T12:12:47.200Z,47.89
2023-02-08T12:15:24.027Z,47.01
2023-02-08T12:18:13.157Z,46.30
2023-02-08T12:20:43.932Z,45.81
2023-02-08T12:23:41.369Z,44.65
2023-02-08T12:26:16.885Z,46.82
2023-02-08T12:28:53.985Z,47.39
2023-02-08T12:31:27.993Z,48.36
2023-02-08T12:34:02.719Z,48.82
2023-02-08T12:36:40.965Z,48.34
2023-02-08T12:39:39.533Z,45.46
2023-02-08T12:42:30.092Z,44.78
2023-02-08T12:45:10.561Z,43.91
2023-02-08T12:48:03.008Z,43.67
2023-02-08T12:50:35.146Z,43.77
2023-02-08T12:53:06.956Z,42.54
2023-02-08T12:55:36.775Z,41.14
2023-02-08T12:58:20.714Z,42.29
2023-02-08T13:00:49.523Z,40.79
2023-02-08T13:03:29.341Z,39.93
2023-02-08T13:06:02.466Z,40.44
2023-02-08T13:08:35.776Z,40.78
2023-02-08T13:11:19.025Z,41.13
2023-02-08T13:13:54.715Z,40.89
2023-02-08T13:16:24.416Z,40.58
2023-02-08T13:18:55.337Z,40.74
2023-02-08T13:21:25.798Z,40.55
2023-02-08T13:23:54.703Z,40.76
2023-02-08T13:26:26.606Z,40.54
2023-02-08T13:28:55.485Z,40.26
2023-02-08T13:31:24.884Z,40.58
2023-02-08T13:34:01.647Z,40.68
2023-02-08T13:36:31.272Z,39.78
2023-02-08T13:39:01.320Z,41.03
2023-02-08T13:41:29.959Z,39.53
2023-02-08T13:43:59.630Z,39.34
2023-02-08T13:46:28.503Z,40.97
2023-02-08T13:48:57.766Z,40.56
2023-02-08T13:51:53.276Z,38.59
2023-02-08T13:54:22.417Z,39.44
2023-02-08T13:56:51.280Z,39.61
2023-02-08T13:59:28.518Z,38.46
2023-02-08T14:02:28.764Z,38.89
2023-02-08T14:05:37.479Z,38.76
2023-02-08T14:08:05.897Z,38.01
2023-02-08T14:10:48.025Z,38.56
2023-02-08T14:13:25.590Z,38.60
2023-02-08T14:16:26.206Z,38.02
2023-02-08T14:18:54.653Z,38.11
2023-02-08T14:21:31.190Z,38.62
2023-02-08T14:24:03.713Z,38.50
2023-02-08T14:26:33.140Z,39.06
2023-02-08T14:29:05.063Z,39.23
2023-02-08T14:31:42.779Z,38.02
2023-02-08T14:34:27.999Z,38.69
2023-02-08T14:37:05.784Z,39.19
2023-02-08T14:39:35.195Z,39.21
2023-02-08T14:42:08.767Z,37.46
2023-02-08T14:45:00.912Z,38.61
2023-02-08T14:48:03.048Z,38.46
2023-02-08T14:50:38.995Z,39.38
2023-02-08T14:53:17.437Z,38.26
2023-02-08T14:55:49.969Z,39.68
2023-02-08T14:58:25.298Z,38.76
2023-02-08T15:00:54.993Z,38.34
2023-02-08T15:03:23.235Z,37.93
2023-02-08T15:06:23.795Z,38.76
2023-02-08T15:08:52.372Z,39.22
2023-02-08T15:11:25.287Z,39.58
2023-02-08T15:13:56.029Z,40.49
2023-02-08T15:16:28.170Z,41.41
2023-02-08T15:18:55.942Z,41.83
2023-02-08T15:21:25.484Z,42.31
2023-02-08T15:24:00.622Z,42.59
2023-02-08T15:26:28.361Z,42.43
2023-02-08T15:28:59.441Z,42.30
2023-02-08T15:31:31.473Z,42.58
2023-02-08T15:33:59.635Z,42.34
2023-02-08T15:36:29.770Z,43.10
2023-02-08T15:38:59.246Z,42.34
2023-02-08T15:41:29.559Z,42.79
2023-02-08T15:44:15.765Z,42.83
2023-02-08T15:46:43.801Z,43.18
2023-02-08T15:49:17.246Z,43.88
2023-02-08T15:51:45.290Z,44.29
2023-02-08T15:54:16.960Z,43.79
2023-02-08T15:56:48.840Z,43.89
2023-02-08T15:59:22.080Z,43.64
2023-02-08T16:01:50.609Z,43.96
2023-02-08T16:04:18.274Z,44.01
2023-02-08T16:06:48.569Z,43.96
2023-02-08T16:09:19.369Z,44.40
2023-02-08T16:11:49.798Z,44.09
2023-02-08T16:14:24.261Z,44.63
2023-02-08T16:16:56.511Z,44.92
2023-02-08T16:19:27.137Z,44.97
2023-02-08T16:21:55.813Z,44.32
2023-02-08T16:24:25.564Z,44.79
2023-02-08T16:27:02.150Z,44.54
2023-02-08T16:29:32.768Z,45.35
2023-02-08T16:32:03.681Z,46.32
2023-02-08T16:34:33.069Z,45.65
2023-02-08T16:37:01.036Z,46.12
2023-02-08T16:39:52.755Z,46.18
2023-02-08T16:42:23.133Z,46.54
2023-02-08T16:45:18.255Z,47.26
2023-02-08T16:47:50.135Z,48.09
2023-02-08T16:50:19.882Z,47.84
2023-02-08T16:52:49.614Z,48.34
2023-02-08T16:55:19.585Z,48.31
2023-02-08T16:57:48.608Z,47.84
2023-02-08T17:00:20.245Z,48.40
2023-02-08T17:02:49.705Z,49.50
2023-02-08T17:05:18.350Z,49.53
2023-02-08T17:07:46.076Z,49.64
2023-02-08T17:10:23.056Z,50.24
2023-02-08T17:12:50.655Z,49.17
2023-02-08T17:15:19.431Z,49.55
2023-02-08T17:17:46.903Z,51.21
2023-02-08T17:20:21.551Z,48.67
2023-02-08T17:22:49.598Z,48.58
2023-02-08T17:25:19.787Z,48.98
2023-02-08T17:27:52.759Z,49.95
2023-02-08T17:30:23.097Z,49.71
2023-02-08T17:32:51.371Z,49.55
2023-02-08T17:35:20.964Z,49.98
2023-02-08T17:37:50.236Z,50.16
2023-02-08T17:40:18.557Z,50.57
2023-02-08T17:42:47.659Z,49.64
2023-02-08T17:45:15.262Z,50.07
2023-02-08T17:47:42.729Z,50.51
2023-02-08T17:50:10.715Z,50.70
2023-02-08T17:52:40.229Z,51.34
2023-02-08T17:55:12.358Z,51.30
2023-02-08T17:57:41.530Z,51.72
2023-02-08T18:00:12.304Z,51.58
2023-02-08T18:02:39.895Z,52.71
2023-02-08T18:05:07.521Z,53.21
2023-02-08T18:07:34.964Z,53.57
2023-02-08T18:10:04.102Z,53.41
2023-02-08T18:12:31.580Z,53.70
2023-02-08T18:14:59.049Z,53.35
2023-02-08T18:17:26.543Z,56.09
2023-02-08T18:19:54.048Z,56.87
2023-02-08T18:22:22.882Z,55.29
2023-02-08T18:24:51.749Z,55.83
2023-02-08T18:27:20.604Z,54.94
2023-02-08T18:29:48.230Z,54.75
2023-02-08T18:32:15.931Z,55.14
2023-02-08T18:34:45.092Z,56.16
2023-02-08T18:37:12.681Z,56.85
2023-02-08T18:39:40.183Z,58.27
2023-02-08T18:42:07.938Z,58.71
2023-02-08T18:44:38.771Z,59.16
2023-02-08T18:47:06.642Z,60.48
2023-02-08T18:49:40.259Z,61.01
2023-02-08T18:52:09.235Z,61.58
2023-02-08T18:54:38.469Z,62.27
2023-02-08T18:57:09.477Z,62.26
2023-02-08T18:59:40.258Z,63.13
2023-02-08T19:02:08.551Z,63.95
2023-02-08T19:04:37.816Z,63.65
2023-02-08T19:07:05.635Z,63.28
2023-02-08T19:09:35.607Z,63.67
2023-02-08T19:12:03.287Z,63.22
2023-02-08T19:14:30.943Z,62.36
2023-02-08T19:16:59.908Z,62.61
2023-02-08T19:19:27.567Z,62.10
2023-02-08T19:21:55.100Z,63.15
2023-02-08T19:24:22.954Z,63.30
2023-02-08T19:26:50.625Z,63.53
2023-02-08T19:29:21.962Z,63.89
2023-02-08T19:31:50.442Z,64.26
2023-02-08T19:34:20.033Z,64.79
2023-02-08T19:36:51.630Z,65.74
2023-02-08T19:39:21.396Z,67.45
2023-02-08T19:41:49.495Z,68.23
2023-02-08T19:44:19.416Z,67.36
2023-02-08T19:46:49.166Z,67.27
2023-02-08T19:49:16.923Z,66.56
2023-02-08T19:51:46.339Z,67.34
2023-02-08T19:54:15.888Z,67.44
2023-02-08T19:56:43.780Z,66.76
2023-02-08T19:59:17.800Z,66.69
2023-02-08T20:01:45.498Z,66.44
2023-02-08T20:04:13.438Z,66.84
2023-02-08T20:06:41.564Z,67.03
2023-02-08T20:09:10.522Z,67.81
2023-02-08T20:11:51.191Z,69.17
2023-02-08T20:14:24.112Z,69.91
2023-02-08T20:16:51.909Z,69.95
2023-02-08T20:19:19.670Z,70.24
2023-02-08T20:21:47.331Z,70.91
2023-02-08T20:24:16.578Z,70.90
2023-02-08T20:26:46.244Z,69.44
2023-02-08T20:29:14.778Z,69.08
2023-02-08T20:31:45.103Z,69.65
2023-02-08T20:34:14.187Z,69.33
2023-02-08T20:36:49.567Z,69.47
2023-02-08T20:39:21.674Z,69.12
2023-02-08T20:41:49.361Z,69.71
2023-02-08T20:44:18.971Z,70.94
2023-02-08T20:46:47.469Z,71.75
2023-02-08T20:49:21.382Z,71.99
2023-02-08T20:51:51.847Z,72.20
2023-02-08T20:54:23.752Z,73.14
2023-02-08T20:56:52.312Z,73.60
2023-02-08T20:59:20.060Z,74.56
2023-02-08T21:01:47.821Z,74.64
2023-02-08T21:04:16.971Z,75.25
2023-02-08T21:06:46.051Z,74.52
2023-02-08T21:09:15.876Z,73.42
2023-02-08T21:11:45.518Z,73.15
2023-02-08T21:14:18.543Z,72.77
2023-02-08T21:16:47.769Z,72.47
2023-02-08T21:19:17.100Z,72.50
2023-02-08T21:21:44.849Z,72.29
2023-02-08T21:24:12.618Z,72.16
2023-02-08T21:26:45.169Z,73.19
2023-02-08T21:29:12.872Z,73.83
2023-02-08T21:31:40.582Z,73.93
2023-02-08T21:34:08.572Z,73.74
2023-02-08T21:36:36.392Z,74.54
2023-02-08T21:39:04.717Z,75.33
2023-02-08T21:41:34.293Z,75.85
2023-02-08T21:44:04.690Z,75.74
2023-02-08T21:46:32.849Z,74.91
2023-02-08T21:49:18.883Z,75.15
2023-02-08T21:52:04.197Z,75.22
2023-02-08T21:54:44.736Z,75.40
2023-02-08T21:57:16.010Z,74.50
2023-02-08T21:59:45.381Z,74.46
2023-02-08T22:02:15.536Z,75.61
2023-02-08T22:05:00.689Z,76.74
2023-02-08T22:07:29.288Z,77.76
2023-02-08T22:09:57.279Z,78.11
2023-02-08T22:12:24.961Z,78.70
2023-02-08T22:14:54.247Z,78.95
2023-02-08T22:17:21.920Z,78.13
2023-02-08T22:19:49.478Z,76.71
2023-02-08T22:22:17.170Z,76.89
2023-02-08T22:24:44.819Z,77.01
2023-02-08T22:27:12.919Z,76.91
2023-02-08T22:29:40.542Z,76.77
2023-02-08T22:32:12.089Z,76.73
2023-02-08T22:34:39.725Z,76.87
2023-02-08T22:37:07.396Z,76.76
2023-02-08T22:39:35.796Z,77.52
2023-02-08T22:42:08.174Z,76.18
2023-02-08T22:44:36.049Z,75.44
2023-02-08T22:47:04.061Z,76.02
2023-02-08T22:49:33.054Z,76.83
2023-02-08T22:52:00.844Z,77.99
2023-02-08T22:54:28.850Z,78.66
2023-02-08T22:56:56.752Z,79.00
2023-02-08T22:59:24.383Z,77.21
2023-02-08T23:01:52.259Z,77.17
2023-02-08T23:04:19.866Z,77.08
2023-02-08T23:06:49.210Z,76.89
2023-02-08T23:09:16.873Z,77.42
2023-02-08T23:11:44.632Z,78.11
2023-02-08T23:14:12.262Z,78.64
2023-02-08T23:16:39.973Z,78.98
2023-02-08T23:19:07.982Z,79.72
2023-02-08T23:21:35.577Z,79.42
2023-02-08T23:24:05.240Z,78.97
2023-02-08T23:26:32.838Z,79.56
2023-02-08T23:29:00.595Z,79.46
2023-02-08T23:31:29.025Z,79.69
2023-02-08T23:33:56.853Z,79.33
2023-02-08T23:36:24.740Z,80.07
2023-02-08T23:38:52.474Z,79.94
2023-02-08T23:41:23.736Z,79.55
2023-02-08T23:43:53.037Z,79.50
2023-02-08T23:46:22.008Z,79.07
2023-02-08T23:48:49.756Z,78.98
2023-02-08T23:51:19.462Z,78.54
2023-02-08T23:53:47.210Z,78.62
2023-02-08T23:56:24.051Z,78.76
2023-02-08T23:58:59.380Z,79.23
